Station: KINGSCOTE AP

  Atmospheric Gas Attenuation - ITU Rec 676-11   --------------- db/100km ---------------
Date Time Temp RH % AH g/m3 Dew Point Wind Direction Speed kph Gust kph Barometer mB Rainfall Since 9am 24GHz 47GHz 76GHz 122GHz 134GHz 241GHz
16 18:30 17.7 64 9.66 10.8 26 35 1020.2 0 21.6 26.7 42.3 111.2 107.7 371.6
16 18:19 18.1 61 9.42 10.5 24 26 1020.1 0 21.1 26.2 41.2 108.1 104.1 358.9
16 18:10 18.8 59 9.5 10.6 28 32 1020 0 21.2 26.1 41.1 107.9 104.2 359.2
16 18:00 19.5 58 9.73 11 26 33 1020.2 0 21.7 26.3 41.7 109.4 106.2 366.4
16 17:50 19.5 56 9.4 10.5 32 35 1020.1 0 21.0 25.8 40.4 106.0 102.0 351.7
16 17:40 18.7 57 9.13 10 28 32 1020 0 20.5 25.6 39.7 104.3 99.6 343.2
16 17:30 19.6 55 9.28 10.3 24 32 1020.1 0 20.7 25.6 39.9 104.6 100.3 346.0
16 17:20 19.1 55 9.02 9.9 24 30 1020.1 0 20.2 25.3 39.1 102.6 97.7 336.7
16 17:10 18.9 57 9.23 10.2 28 33 1020.2 0 20.7 25.7 40.0 105.0 100.6 346.8
16 17:00 18 61 9.37 10.4 24 33 1020.4 0 21.0 26.2 41.0 107.7 103.6 357.1
16 16:50 19.3 57 9.45 10.6 30 33 1020.3 0 21.1 25.9 40.7 106.8 102.9 354.9
16 16:40 19.5 55 9.23 10.2 28 30 1020.2 0 20.6 25.5 39.7 104.3 99.9 344.2
16 16:30 19.1 55 9.02 9.9 24 35 1020.4 0 20.2 25.3 39.1 102.7 97.7 336.8
16 16:20 19.5 55 9.23 10.2 17 20 1020.5 0 20.6 25.5 39.7 104.3 99.9 344.3
16 16:10 19.1 56 9.18 10.1 26 35 1020.7 0 20.6 25.6 39.8 104.3 99.8 343.9
16 16:00 18.3 56 8.76 9.4 24 33 1021 0 19.7 25.2 38.6 101.1 95.5 328.8
16 15:50 18.4 56 8.81 9.5 24 28 1020.9 0 19.8 25.2 38.7 101.5 96.0 330.6
16 15:40 18.6 56 8.91 9.7 20 30 1021.1 0 20.0 25.3 39.0 102.2 97.0 334.2
16 15:30 18.7 55 8.8 9.5 24 32 1021.2 0 19.8 25.1 38.5 101.0 95.5 329.0
16 15:20 18.7 57 9.13 10 24 28 1021.3 0 20.5 25.6 39.8 104.4 99.7 343.6
16 15:10 18 57 8.75 9.4 28 32 1021.5 0 19.7 25.2 38.7 101.4 95.8 329.8
16 15:00 18.2 55 8.55 9 28 35 1021.6 0 19.3 24.9 37.8 99.1 93.0 320.2
16 14:50 18.4 55 8.65 9.2 28 33 1021.4 0 19.5 25.0 38.1 99.9 94.0 323.7
16 14:40 19.1 54 8.85 9.6 22 32 1021.5 0 19.9 25.1 38.5 101.0 95.7 329.6
16 14:30 18 54 8.29 8.6 26 33 1021.7 0 18.7 24.5 36.9 96.8 90.0 309.7
16 14:20 18.2 54 8.39 8.7 22 28 1021.7 0 18.9 24.6 37.2 97.5 91.1 313.3
16 14:10 18.5 52 8.23 8.5 28 32 1021.6 0 18.6 24.3 36.5 95.6 88.7 305.1
16 14:00 18.4 53 8.34 8.7 24 33 1021.7 0 18.8 24.5 37.0 96.8 90.2 310.3
16 13:50 18.3 53 8.29 8.6 22 28 1021.6 0 18.7 24.5 36.8 96.4 89.7 308.5
16 13:40 18.2 54 8.39 8.7 24 28 1021.7 0 18.9 24.6 37.2 97.5 91.1 313.3
16 13:30 17.3 56 8.25 8.4 26 33 1021.9 0 18.7 24.7 37.1 97.2 90.4 310.7
16 13:20 17.8 56 8.5 8.9 17 24 1021.8 0 19.2 24.9 37.8 99.2 92.9 319.7
16 13:10 17.7 57 8.6 9.1 26 32 1021.8 0 19.4 25.1 38.3 100.3 94.3 324.5
16 13:00 17.3 57 8.4 8.7 26 35 1022 0 19.0 24.9 37.7 98.8 92.3 317.3
16 12:50 17.5 57 8.5 8.9 24 28 1021.9 0 19.2 25.0 38.0 99.5 93.3 320.9
16 12:40 17 58 8.39 8.7 20 24 1022 0 19.0 25.0 37.8 99.0 92.5 318.1
16 12:30 17.1 57 8.3 8.5 22 35 1022.2 0 18.8 24.8 37.4 98.0 91.2 313.8
16 12:20 17.9 55 8.4 8.7 26 28 1022 0 19.0 24.7 37.4 98.0 91.6 314.9
16 12:10 18.1 52 8.03 8.1 22 28 1021.9 0 18.2 24.1 35.9 94.1 86.7 298.1
16 12:00 17.9 51 7.79 7.6 26 35 1022 0 17.7 23.8 35.1 91.9 84.0 288.6
16 11:50 18 51 7.83 7.7 24 32 1021.9 0 17.8 23.9 35.2 92.2 84.4 289.9
16 11:40 19 49 7.98 8.1 19 20 1021.8 0 18.0 23.8 35.4 92.5 85.2 292.6
16 11:30 18.6 47 7.48 7.1 20 30 1021.8 0 17.0 23.2 33.7 88.1 79.6 273.0
16 11:20 18.4 48 7.55 7.2 19 26 1021.7 0 17.1 23.3 34.0 89.0 80.6 276.6
16 11:10 17 50 7.23 6.5 24 28 1021.8 0 16.5 23.2 33.4 87.4 78.1 267.8
16 11:00 16.9 52 7.48 7 24 32 1022 0 17.1 23.6 34.4 90.0 81.3 278.8
16 10:50 16.6 54 7.63 7.3 24 28 1021.8 0 17.4 23.9 35.1 91.8 83.4 286.3
16 10:40 16.7 55 7.82 7.6 26 32 1021.7 0 17.8 24.2 35.8 93.6 85.7 294.1
16 10:30 16.9 56 8.05 8.1 26 32 1021.8 0 18.3 24.5 36.5 95.7 88.3 303.5
16 10:20 17.1 54 7.86 7.7 20 26 1021.7 0 17.9 24.1 35.7 93.5 85.7 294.4
16 10:10 17.1 52 7.57 7.2 22 26 1021.6 0 17.2 23.7 34.6 90.6 82.2 281.9
16 10:00 16.8 51 7.29 6.6 26 35 1021.8 0 16.7 23.4 33.7 88.2 79.1 271.0
16 09:50 18 47 7.22 6.5 28 32 1021.7 0 16.5 22.9 33.0 86.2 77.0 264.0
16 09:40 17.8 47 7.13 6.3 26 30 1021.7 0 16.3 22.9 32.8 85.6 76.2 260.9
16 09:30 17.2 47 6.88 5.8 20 30 1021.8 0 15.8 22.6 32.1 83.8 73.7 252.4
16 09:20 15.6 52 6.92 5.8 22 26 1021.9 0 15.9 23.1 32.9 85.9 75.7 259.2
16 09:10 16.3 51 7.08 6.2 17 19 1021.9 0 16.2 23.2 33.2 86.7 77.0 263.7
16 09:00 16.2 52 7.17 6.3 26 35 1021.8 0 16.4 23.3 33.6 87.7 78.2 267.9
16 08:50 17.1 49 7.13 6.3 24 30 1021.6 0 16.3 23.0 33.0 86.3 76.8 263.2
16 08:40 16.4 49 6.84 5.7 24 30 1021.6 0 15.7 22.8 32.3 84.2 74.0 253.2
16 08:30 16.2 51 7.03 6.1 24 33 1021.5 0 16.1 23.1 33.0 86.3 76.5 261.9
16 08:20 15.8 53 7.13 6.3 24 28 1021.4 0 16.4 23.4 33.6 87.7 78.1 267.4
16 08:10 15.2 55 7.14 6.2 22 24 1021.3 0 16.4 23.5 33.8 88.4 78.8 269.8
16 08:00 15.3 56 7.31 6.6 20 30 1021.5 0 16.8 23.8 34.4 90.0 80.8 276.9
16 07:50 15.3 59 7.7 7.3 15 19 1021.3 0 17.6 24.3 35.9 94.0 85.7 293.9
16 07:40 15.1 59 7.61 7.2 15 19 1021.3 0 17.4 24.3 35.7 93.3 84.7 290.7
16 07:30 15 58 7.44 6.8 11 19 1021.3 0 17.1 24.0 35.1 91.7 82.7 283.6
16 07:20 14.7 58 7.3 6.5 9 11 1021.1 0 16.8 23.9 34.6 90.6 81.3 278.5
16 07:10 14.5 59 7.34 6.6 11 11 1021 0 16.9 24.0 34.9 91.2 82.0 280.9
16 07:00 14.4 60 7.42 6.7 7 9 1020.9 0 17.0 24.1 35.2 92.1 83.1 284.8
16 06:50 14.4 60 7.42 6.7 9 9 1020.8 0 17.0 24.1 35.2 92.1 83.1 284.7
16 06:40 14.3 60 7.37 6.6 9 9 1020.7 0 16.9 24.1 35.1 91.7 82.5 282.9
16 06:30 14.4 60 7.42 6.7 13 15 1020.8 0 17.0 24.1 35.2 92.1 83.1 284.7
16 06:20 14.3 60 7.37 6.6 13 15 1020.6 0 16.9 24.1 35.1 91.7 82.5 282.8
16 06:10 14.3 60 7.37 6.6 11 13 1020.5 0 16.9 24.1 35.1 91.7 82.5 282.8
16 06:00 14.3 59 7.25 6.4 9 13 1020.4 0 16.7 23.9 34.6 90.5 81.0 277.5
16 05:50 14.1 58 7.04 6 9 11 1020.3 0 16.2 23.6 33.9 88.5 78.6 269.0
16 05:40 14 57 6.88 5.6 9 11 1020.1 0 15.9 23.4 33.3 87.0 76.7 262.3
16 05:30 14.1 56 6.8 5.5 9 11 1020.1 0 15.7 23.2 33.0 86.1 75.6 258.5
16 05:20 14.1 56 6.8 5.5 11 11 1019.9 0 15.7 23.2 33.0 86.1 75.6 258.4
16 05:10 14.3 55 6.76 5.4 13 15 1019.7 0 15.6 23.1 32.7 85.5 74.9 256.0
16 04:50 14.3 54 6.63 5.1 13 15 1019.6 0 15.4 22.9 32.2 84.2 73.3 250.4
16 04:40 14.3 53 6.51 4.9 11 13 1019.6 0 15.1 22.7 31.8 83.0 71.8 245.3
16 04:30 14.4 53 6.55 5 19 24 1019.6 0 15.2 22.8 31.9 83.3 72.2 246.7
16 04:20 14.4 53 6.55 5 24 26 1019.5 0 15.2 22.8 31.9 83.3 72.2 246.6
16 04:10 14.5 54 6.72 5.3 19 20 1019.5 0 15.6 23.0 32.5 84.8 74.2 253.6
16 04:00 14.4 53 6.55 5 19 28 1019.6 0 15.2 22.8 31.9 83.3 72.2 246.7
16 03:50 14.4 55 6.8 5.5 19 20 1019.5 0 15.7 23.1 32.8 85.7 75.2 257.4
16 03:40 14.5 56 6.97 5.8 24 26 1019.4 0 16.1 23.4 33.4 87.3 77.2 264.4
16 03:30 14.4 59 7.29 6.5 20 26 1019.6 0 16.8 23.9 34.7 90.7 81.3 278.7
16 03:20 14.3 61 7.49 6.9 22 28 1019.5 0 17.2 24.2 35.5 92.8 84.0 287.9
16 03:10 14.5 57 7.09 6.1 22 26 1019.6 0 16.3 23.6 33.9 88.5 78.7 269.6
16 03:00 14.6 55 6.88 5.7 19 26 1019.8 0 15.9 23.2 33.1 86.4 76.1 260.2
16 02:50 14.6 56 7.01 5.9 19 20 1019.7 0 16.2 23.4 33.5 87.6 77.7 265.8
16 02:40 14.6 57 7.13 6.2 19 22 1019.8 0 16.4 23.6 34.0 88.9 79.2 271.1
16 02:30 14.6 58 7.26 6.4 22 28 1020 0 16.7 23.8 34.5 90.2 80.8 276.8
16 02:20 14.6 57 7.13 6.2 19 20 1019.9 0 16.4 23.6 34.0 88.9 79.2 271.1
16 02:10 14.6 54 6.76 5.4 20 24 1020 0 15.6 23.1 32.6 85.2 74.6 255.1
16 02:00 14.5 54 6.72 5.3 17 22 1020.1 0 15.6 23.0 32.5 84.9 74.2 253.7
16 01:50 14.5 55 6.84 5.6 17 19 1020.3 0 15.8 23.2 33.0 86.1 75.7 259.0

Last Refresh: 16-Jan-2021 18:39:36

Most of the information presented on this site is sourced from the Bureau of Meteorology.  Copyright in all material sourced from the Bureau of Meteorology resides with the Commonwealth of Australia.